sensor_id;sensor_type;location;lat;lon;timestamp;temperature;humidity
66096;SHT31;53861;53.422;14.530;2022-10-03T00:01:21;10.96;92.86
66096;SHT31;53861;53.422;14.530;2022-10-03T00:03:56;10.98;92.48
66096;SHT31;53861;53.422;14.530;2022-10-03T00:06:33;10.92;92.34
66096;SHT31;53861;53.422;14.530;2022-10-03T00:09:10;10.92;92.39
66096;SHT31;53861;53.422;14.530;2022-10-03T00:11:43;10.93;92.56
66096;SHT31;53861;53.422;14.530;2022-10-03T00:14:15;10.92;93.30
66096;SHT31;53861;53.422;14.530;2022-10-03T00:16:44;10.88;92.58
66096;SHT31;53861;53.422;14.530;2022-10-03T00:19:18;10.88;93.24
66096;SHT31;53861;53.422;14.530;2022-10-03T00:21:51;10.83;93.22
66096;SHT31;53861;53.422;14.530;2022-10-03T00:24:22;10.83;93.05
66096;SHT31;53861;53.422;14.530;2022-10-03T00:26:51;10.83;93.04
66096;SHT31;53861;53.422;14.530;2022-10-03T00:29:24;10.82;93.17
66096;SHT31;53861;53.422;14.530;2022-10-03T00:31:55;10.88;93.12
66096;SHT31;53861;53.422;14.530;2022-10-03T00:34:28;10.86;93.26
66096;SHT31;53861;53.422;14.530;2022-10-03T00:37:07;10.85;93.02
66096;SHT31;53861;53.422;14.530;2022-10-03T00:39:39;10.89;93.24
66096;SHT31;53861;53.422;14.530;2022-10-03T00:47:43;10.85;93.15
66096;SHT31;53861;53.422;14.530;2022-10-03T00:50:19;10.83;93.04
66096;SHT31;53861;53.422;14.530;2022-10-03T00:52:57;10.85;93.74
66096;SHT31;53861;53.422;14.530;2022-10-03T00:55:29;10.89;93.99
66096;SHT31;53861;53.422;14.530;2022-10-03T00:58:11;10.93;93.51
66096;SHT31;53861;53.422;14.530;2022-10-03T01:00:45;10.93;93.43
66096;SHT31;53861;53.422;14.530;2022-10-03T01:03:18;10.92;93.05
66096;SHT31;53861;53.422;14.530;2022-10-03T01:05:56;10.92;93.36
66096;SHT31;53861;53.422;14.530;2022-10-03T01:08:31;10.91;93.53
66096;SHT31;53861;53.422;14.530;2022-10-03T01:11:02;10.86;93.45
66096;SHT31;53861;53.422;14.530;2022-10-03T01:13:34;10.91;93.11
66096;SHT31;53861;53.422;14.530;2022-10-03T01:16:06;10.91;93.03
66096;SHT31;53861;53.422;14.530;2022-10-03T01:18:38;10.89;93.31
66096;SHT31;53861;53.422;14.530;2022-10-03T01:21:11;10.92;93.25
66096;SHT31;53861;53.422;14.530;2022-10-03T01:23:47;10.96;93.04
66096;SHT31;53861;53.422;14.530;2022-10-03T01:26:21;10.96;92.72
66096;SHT31;53861;53.422;14.530;2022-10-03T01:28:52;10.98;93.04
66096;SHT31;53861;53.422;14.530;2022-10-03T01:31:41;10.96;92.84
66096;SHT31;53861;53.422;14.530;2022-10-03T01:34:10;10.91;92.91
66096;SHT31;53861;53.422;14.530;2022-10-03T01:36:39;10.93;93.31
66096;SHT31;53861;53.422;14.530;2022-10-03T01:39:11;10.91;93.19
66096;SHT31;53861;53.422;14.530;2022-10-03T01:41:42;10.92;92.80
66096;SHT31;53861;53.422;14.530;2022-10-03T01:44:15;10.96;92.86
66096;SHT31;53861;53.422;14.530;2022-10-03T01:46:44;10.95;93.15
66096;SHT31;53861;53.422;14.530;2022-10-03T01:49:16;10.96;93.19
66096;SHT31;53861;53.422;14.530;2022-10-03T01:51:47;10.91;92.86
66096;SHT31;53861;53.422;14.530;2022-10-03T01:54:15;10.91;92.96
66096;SHT31;53861;53.422;14.530;2022-10-03T01:56:50;10.89;92.88
66096;SHT31;53861;53.422;14.530;2022-10-03T01:59:21;10.91;93.05
66096;SHT31;53861;53.422;14.530;2022-10-03T02:01:50;10.92;92.83
66096;SHT31;53861;53.422;14.530;2022-10-03T02:04:21;10.91;92.77
66096;SHT31;53861;53.422;14.530;2022-10-03T02:06:57;10.89;92.55
66096;SHT31;53861;53.422;14.530;2022-10-03T02:09:27;10.93;92.60
66096;SHT31;53861;53.422;14.530;2022-10-03T02:12:03;11.03;92.41
66096;SHT31;53861;53.422;14.530;2022-10-03T02:14:38;11.05;91.78
66096;SHT31;53861;53.422;14.530;2022-10-03T02:17:07;11.03;91.89
66096;SHT31;53861;53.422;14.530;2022-10-03T02:19:40;11.10;92.07
66096;SHT31;53861;53.422;14.530;2022-10-03T02:22:12;11.06;91.75
66096;SHT31;53861;53.422;14.530;2022-10-03T02:24:40;11.06;91.22
66096;SHT31;53861;53.422;14.530;2022-10-03T02:30:08;11.00;91.51
66096;SHT31;53861;53.422;14.530;2022-10-03T02:32:51;11.03;91.44
66096;SHT31;53861;53.422;14.530;2022-10-03T02:38:09;10.98;91.45
66096;SHT31;53861;53.422;14.530;2022-10-03T02:43:30;11.03;91.10
66096;SHT31;53861;53.422;14.530;2022-10-03T02:46:11;11.03;90.96
66096;SHT31;53861;53.422;14.530;2022-10-03T02:48:50;11.02;90.66
66096;SHT31;53861;53.422;14.530;2022-10-03T03:02:28;11.05;91.16
66096;SHT31;53861;53.422;14.530;2022-10-03T03:07:56;11.05;91.63
66096;SHT31;53861;53.422;14.530;2022-10-03T03:10:36;11.13;91.47
66096;SHT31;53861;53.422;14.530;2022-10-03T03:13:14;11.27;91.31
66096;SHT31;53861;53.422;14.530;2022-10-03T03:15:47;11.34;90.34
66096;SHT31;53861;53.422;14.530;2022-10-03T03:18:30;11.33;90.68
66096;SHT31;53861;53.422;14.530;2022-10-03T03:21:04;11.31;90.90
66096;SHT31;53861;53.422;14.530;2022-10-03T03:23:39;11.31;91.06
66096;SHT31;53861;53.422;14.530;2022-10-03T03:26:14;11.39;90.49
66096;SHT31;53861;53.422;14.530;2022-10-03T03:28:45;11.33;90.39
66096;SHT31;53861;53.422;14.530;2022-10-03T03:31:15;11.31;90.37
66096;SHT31;53861;53.422;14.530;2022-10-03T03:33:47;11.29;90.90
66096;SHT31;53861;53.422;14.530;2022-10-03T03:36:19;11.24;91.40
66096;SHT31;53861;53.422;14.530;2022-10-03T03:38:51;11.19;91.27
66096;SHT31;53861;53.422;14.530;2022-10-03T03:41:30;11.09;92.37
66096;SHT31;53861;53.422;14.530;2022-10-03T03:46:52;10.95;91.88
66096;SHT31;53861;53.422;14.530;2022-10-03T03:49:36;10.96;92.24
66096;SHT31;53861;53.422;14.530;2022-10-03T03:52:09;10.93;92.56
66096;SHT31;53861;53.422;14.530;2022-10-03T03:54:45;10.91;92.24
66096;SHT31;53861;53.422;14.530;2022-10-03T03:57:26;10.98;92.81
66096;SHT31;53861;53.422;14.530;2022-10-03T04:00:02;11.09;92.86
66096;SHT31;53861;53.422;14.530;2022-10-03T04:02:37;11.15;92.33
66096;SHT31;53861;53.422;14.530;2022-10-03T04:05:12;11.24;91.52
66096;SHT31;53861;53.422;14.530;2022-10-03T04:07:44;11.31;91.94
66096;SHT31;53861;53.422;14.530;2022-10-03T04:13:12;11.49;91.09
66096;SHT31;53861;53.422;14.530;2022-10-03T04:15:50;11.53;91.44
66096;SHT31;53861;53.422;14.530;2022-10-03T04:18:26;11.57;91.05
66096;SHT31;53861;53.422;14.530;2022-10-03T04:26:59;11.63;90.76
66096;SHT31;53861;53.422;14.530;2022-10-03T04:29:42;11.61;90.88
66096;SHT31;53861;53.422;14.530;2022-10-03T04:32:15;11.67;90.49
66096;SHT31;53861;53.422;14.530;2022-10-03T04:34:52;11.70;90.18
66096;SHT31;53861;53.422;14.530;2022-10-03T04:37:25;11.70;90.34
66096;SHT31;53861;53.422;14.530;2022-10-03T04:40:00;11.64;90.71
66096;SHT31;53861;53.422;14.530;2022-10-03T04:42:40;11.63;90.50
66096;SHT31;53861;53.422;14.530;2022-10-03T04:45:23;11.59;91.04
66096;SHT31;53861;53.422;14.530;2022-10-03T04:47:55;11.60;90.66
66096;SHT31;53861;53.422;14.530;2022-10-03T04:50:27;11.66;91.01
66096;SHT31;53861;53.422;14.530;2022-10-03T04:53:00;11.63;90.88
66096;SHT31;53861;53.422;14.530;2022-10-03T04:55:32;11.66;91.21
66096;SHT31;53861;53.422;14.530;2022-10-03T04:58:13;11.61;91.45
66096;SHT31;53861;53.422;14.530;2022-10-03T05:00:46;11.59;90.97
66096;SHT31;53861;53.422;14.530;2022-10-03T05:03:14;11.54;90.82
66096;SHT31;53861;53.422;14.530;2022-10-03T05:05:47;11.46;91.36
66096;SHT31;53861;53.422;14.530;2022-10-03T05:08:18;11.31;91.86
66096;SHT31;53861;53.422;14.530;2022-10-03T05:10:57;11.27;92.25
66096;SHT31;53861;53.422;14.530;2022-10-03T05:13:35;11.23;92.42
66096;SHT31;53861;53.422;14.530;2022-10-03T05:16:07;11.24;92.61
66096;SHT31;53861;53.422;14.530;2022-10-03T05:18:38;11.24;92.36
66096;SHT31;53861;53.422;14.530;2022-10-03T05:21:08;11.19;92.68
66096;SHT31;53861;53.422;14.530;2022-10-03T05:23:40;11.19;92.83
66096;SHT31;53861;53.422;14.530;2022-10-03T05:26:12;11.19;92.96
66096;SHT31;53861;53.422;14.530;2022-10-03T05:28:43;11.19;92.87
66096;SHT31;53861;53.422;14.530;2022-10-03T05:31:21;11.27;92.63
66096;SHT31;53861;53.422;14.530;2022-10-03T05:33:50;11.30;92.21
66096;SHT31;53861;53.422;14.530;2022-10-03T05:36:25;11.29;92.22
66096;SHT31;53861;53.422;14.530;2022-10-03T05:39:00;11.27;92.69
66096;SHT31;53861;53.422;14.530;2022-10-03T05:41:32;11.30;92.43
66096;SHT31;53861;53.422;14.530;2022-10-03T05:44:03;11.34;92.17
66096;SHT31;53861;53.422;14.530;2022-10-03T05:46:44;11.36;92.29
66096;SHT31;53861;53.422;14.530;2022-10-03T05:49:18;11.56;91.90
66096;SHT31;53861;53.422;14.530;2022-10-03T05:51:56;11.69;91.79
66096;SHT31;53861;53.422;14.530;2022-10-03T05:54:35;11.73;91.53
66096;SHT31;53861;53.422;14.530;2022-10-03T06:00:07;11.87;91.00
66096;SHT31;53861;53.422;14.530;2022-10-03T06:02:54;11.91;91.37
66096;SHT31;53861;53.422;14.530;2022-10-03T06:05:31;11.97;90.46
66096;SHT31;53861;53.422;14.530;2022-10-03T06:11:06;12.18;90.43
66096;SHT31;53861;53.422;14.530;2022-10-03T06:13:41;12.15;90.20
66096;SHT31;53861;53.422;14.530;2022-10-03T06:16:19;12.18;90.13
66096;SHT31;53861;53.422;14.530;2022-10-03T06:19:04;12.17;89.91
66096;SHT31;53861;53.422;14.530;2022-10-03T06:24:24;12.20;89.33
66096;SHT31;53861;53.422;14.530;2022-10-03T06:27:16;12.28;89.42
66096;SHT31;53861;53.422;14.530;2022-10-03T06:29:58;13.04;88.36
66096;SHT31;53861;53.422;14.530;2022-10-03T06:35:30;15.35;80.58
66096;SHT31;53861;53.422;14.530;2022-10-03T06:43:40;18.25;73.00
66096;SHT31;53861;53.422;14.530;2022-10-03T06:52:03;16.89;74.15
66096;SHT31;53861;53.422;14.530;2022-10-03T06:57:24;15.85;75.65
66096;SHT31;53861;53.422;14.530;2022-10-03T07:00:00;15.27;78.33
66096;SHT31;53861;53.422;14.530;2022-10-03T07:02:55;15.12;78.06
66096;SHT31;53861;53.422;14.530;2022-10-03T07:11:16;17.39;74.87
66096;SHT31;53861;53.422;14.530;2022-10-03T07:13:59;18.04;69.23
66096;SHT31;53861;53.422;14.530;2022-10-03T07:16:47;16.82;72.48
66096;SHT31;53861;53.422;14.530;2022-10-03T07:19:18;17.07;74.21
66096;SHT31;53861;53.422;14.530;2022-10-03T07:24:46;19.81;66.00
66096;SHT31;53861;53.422;14.530;2022-10-03T07:27:31;20.04;64.72
66096;SHT31;53861;53.422;14.530;2022-10-03T07:30:09;19.51;63.93
66096;SHT31;53861;53.422;14.530;2022-10-03T07:32:47;21.26;65.01
66096;SHT31;53861;53.422;14.530;2022-10-03T07:38:44;20.38;62.19
66096;SHT31;53861;53.422;14.530;2022-10-03T07:41:37;20.25;62.15
66096;SHT31;53861;53.422;14.530;2022-10-03T07:47:19;17.50;68.93
66096;SHT31;53861;53.422;14.530;2022-10-03T07:49:59;16.63;72.86
66096;SHT31;53861;53.422;14.530;2022-10-03T07:52:41;16.69;71.87
66096;SHT31;53861;53.422;14.530;2022-10-03T07:58:11;15.92;74.46
66096;SHT31;53861;53.422;14.530;2022-10-03T08:00:45;15.99;75.95
66096;SHT31;53861;53.422;14.530;2022-10-03T08:06:19;16.87;73.43
66096;SHT31;53861;53.422;14.530;2022-10-03T08:08:56;17.96;70.38
66096;SHT31;53861;53.422;14.530;2022-10-03T08:11:38;18.69;67.58
66096;SHT31;53861;53.422;14.530;2022-10-03T08:14:16;20.39;63.77
66096;SHT31;53861;53.422;14.530;2022-10-03T08:17:13;21.42;60.60
66096;SHT31;53861;53.422;14.530;2022-10-03T08:19:54;23.66;55.47
66096;SHT31;53861;53.422;14.530;2022-10-03T08:22:34;21.75;58.00
66096;SHT31;53861;53.422;14.530;2022-10-03T08:25:16;23.03;59.60
66096;SHT31;53861;53.422;14.530;2022-10-03T08:30:33;21.47;56.83
66096;SHT31;53861;53.422;14.530;2022-10-03T08:36:07;19.13;66.47
66096;SHT31;53861;53.422;14.530;2022-10-03T08:38:56;18.11;68.55
66096;SHT31;53861;53.422;14.530;2022-10-03T08:41:42;17.42;69.41
66096;SHT31;53861;53.422;14.530;2022-10-03T08:47:18;16.60;72.61
66096;SHT31;53861;53.422;14.530;2022-10-03T08:50:13;16.51;72.29
66096;SHT31;53861;53.422;14.530;2022-10-03T08:52:45;16.65;70.39
66096;SHT31;53861;53.422;14.530;2022-10-03T08:55:27;16.51;72.04
66096;SHT31;53861;53.422;14.530;2022-10-03T09:03:36;15.99;75.44
66096;SHT31;53861;53.422;14.530;2022-10-03T09:09:03;15.83;74.14
66096;SHT31;53861;53.422;14.530;2022-10-03T09:11:37;16.17;73.13
66096;SHT31;53861;53.422;14.530;2022-10-03T09:14:21;16.48;73.07
66096;SHT31;53861;53.422;14.530;2022-10-03T09:17:06;17.12;71.13
66096;SHT31;53861;53.422;14.530;2022-10-03T09:19:44;17.66;70.32
66096;SHT31;53861;53.422;14.530;2022-10-03T09:22:20;17.33;69.48
66096;SHT31;53861;53.422;14.530;2022-10-03T09:25:06;16.85;71.60
66096;SHT31;53861;53.422;14.530;2022-10-03T09:27:43;16.48;71.41
66096;SHT31;53861;53.422;14.530;2022-10-03T09:30:23;16.31;72.15
66096;SHT31;53861;53.422;14.530;2022-10-03T09:32:57;17.25;69.87
66096;SHT31;53861;53.422;14.530;2022-10-03T09:35:36;17.49;68.49
66096;SHT31;53861;53.422;14.530;2022-10-03T09:41:16;17.25;69.15
66096;SHT31;53861;53.422;14.530;2022-10-03T09:43:59;17.62;69.85
66096;SHT31;53861;53.422;14.530;2022-10-03T09:46:46;19.51;65.97
66096;SHT31;53861;53.422;14.530;2022-10-03T09:49:51;18.73;65.85
66096;SHT31;53861;53.422;14.530;2022-10-03T09:52:25;17.94;66.92
66096;SHT31;53861;53.422;14.530;2022-10-03T09:57:51;17.32;71.31
66096;SHT31;53861;53.422;14.530;2022-10-03T10:00:23;16.94;70.10
66096;SHT31;53861;53.422;14.530;2022-10-03T10:03:08;18.25;71.36
66096;SHT31;53861;53.422;14.530;2022-10-03T10:05:48;20.91;63.24
66096;SHT31;53861;53.422;14.530;2022-10-03T10:08:30;19.98;63.06
66096;SHT31;53861;53.422;14.530;2022-10-03T10:13:57;18.21;67.47
66096;SHT31;53861;53.422;14.530;2022-10-03T10:19:18;17.18;69.85
66096;SHT31;53861;53.422;14.530;2022-10-03T10:22:08;16.79;70.66
66096;SHT31;53861;53.422;14.530;2022-10-03T10:30:29;19.49;63.17
66096;SHT31;53861;53.422;14.530;2022-10-03T10:36:12;19.73;65.83
66096;SHT31;53861;53.422;14.530;2022-10-03T10:44:24;20.53;61.90
66096;SHT31;53861;53.422;14.530;2022-10-03T10:47:11;20.75;59.59
66096;SHT31;53861;53.422;14.530;2022-10-03T10:49:44;22.68;59.19
66096;SHT31;53861;53.422;14.530;2022-10-03T10:52:23;24.13;55.92
66096;SHT31;53861;53.422;14.530;2022-10-03T10:57:53;26.00;47.60
66096;SHT31;53861;53.422;14.530;2022-10-03T11:00:29;25.23;50.05
66096;SHT31;53861;53.422;14.530;2022-10-03T11:08:53;21.75;57.04
66096;SHT31;53861;53.422;14.530;2022-10-03T11:11:52;20.84;55.78
66096;SHT31;53861;53.422;14.530;2022-10-03T11:17:21;22.19;56.10
66096;SHT31;53861;53.422;14.530;2022-10-03T11:20:17;22.98;53.76
66096;SHT31;53861;53.422;14.530;2022-10-03T11:28:45;20.21;59.69
66096;SHT31;53861;53.422;14.530;2022-10-03T11:31:39;19.10;63.46
66096;SHT31;53861;53.422;14.530;2022-10-03T11:37:21;21.51;62.34
66096;SHT31;53861;53.422;14.530;2022-10-03T11:39:52;21.68;56.16
66096;SHT31;53861;53.422;14.530;2022-10-03T11:42:26;20.30;58.92
66096;SHT31;53861;53.422;14.530;2022-10-03T11:44:59;19.50;60.07
66096;SHT31;53861;53.422;14.530;2022-10-03T11:47:37;21.03;61.76
66096;SHT31;53861;53.422;14.530;2022-10-03T11:53:07;24.67;49.27
66096;SHT31;53861;53.422;14.530;2022-10-03T11:55:37;24.84;47.00
66096;SHT31;53861;53.422;14.530;2022-10-03T11:58:30;23.59;52.89
66096;SHT31;53861;53.422;14.530;2022-10-03T12:01:07;21.99;55.39
66096;SHT31;53861;53.422;14.530;2022-10-03T12:03:38;21.15;55.88
66096;SHT31;53861;53.422;14.530;2022-10-03T12:06:11;20.45;60.80
66096;SHT31;53861;53.422;14.530;2022-10-03T12:09:01;19.46;59.45
66096;SHT31;53861;53.422;14.530;2022-10-03T12:11:34;18.85;61.33
66096;SHT31;53861;53.422;14.530;2022-10-03T12:16:55;18.66;66.35
66096;SHT31;53861;53.422;14.530;2022-10-03T12:19:27;21.51;58.32
66096;SHT31;53861;53.422;14.530;2022-10-03T12:21:56;23.17;54.93
66096;SHT31;53861;53.422;14.530;2022-10-03T12:24:25;23.79;53.90
66096;SHT31;53861;53.422;14.530;2022-10-03T12:26:55;24.36;49.22
66096;SHT31;53861;53.422;14.530;2022-10-03T12:29:25;22.39;55.53
66096;SHT31;53861;53.422;14.530;2022-10-03T12:32:01;21.03;59.25
66096;SHT31;53861;53.422;14.530;2022-10-03T12:34:33;20.12;60.19
66096;SHT31;53861;53.422;14.530;2022-10-03T12:37:07;19.70;60.56
66096;SHT31;53861;53.422;14.530;2022-10-03T12:39:43;18.88;60.94
66096;SHT31;53861;53.422;14.530;2022-10-03T12:42:21;18.75;62.42
66096;SHT31;53861;53.422;14.530;2022-10-03T12:45:00;18.83;60.24
66096;SHT31;53861;53.422;14.530;2022-10-03T12:47:33;18.45;62.06
66096;SHT31;53861;53.422;14.530;2022-10-03T12:50:05;18.14;64.76
66096;SHT31;53861;53.422;14.530;2022-10-03T12:52:36;17.66;66.73
66096;SHT31;53861;53.422;14.530;2022-10-03T12:55:11;18.49;62.13
66096;SHT31;53861;53.422;14.530;2022-10-03T12:57:44;19.02;62.37
66096;SHT31;53861;53.422;14.530;2022-10-03T13:00:15;19.98;63.11
66096;SHT31;53861;53.422;14.530;2022-10-03T13:02:51;19.40;61.36
66096;SHT31;53861;53.422;14.530;2022-10-03T13:05:31;19.81;63.37
66096;SHT31;53861;53.422;14.530;2022-10-03T13:08:01;19.10;62.48
66096;SHT31;53861;53.422;14.530;2022-10-03T13:10:32;19.23;64.05
66096;SHT31;53861;53.422;14.530;2022-10-03T13:13:05;20.01;64.07
66096;SHT31;53861;53.422;14.530;2022-10-03T13:15:40;20.73;64.29
66096;SHT31;53861;53.422;14.530;2022-10-03T13:18:22;21.17;58.19
66096;SHT31;53861;53.422;14.530;2022-10-03T13:20:52;21.42;57.65
66096;SHT31;53861;53.422;14.530;2022-10-03T13:23:27;21.51;57.52
66096;SHT31;53861;53.422;14.530;2022-10-03T13:25:59;21.69;57.67
66096;SHT31;53861;53.422;14.530;2022-10-03T13:28:28;21.45;61.94
66096;SHT31;53861;53.422;14.530;2022-10-03T13:30:57;20.50;59.87
66096;SHT31;53861;53.422;14.530;2022-10-03T13:33:29;19.79;63.69
66096;SHT31;53861;53.422;14.530;2022-10-03T13:35:58;19.20;64.00
66096;SHT31;53861;53.422;14.530;2022-10-03T13:41:28;18.00;66.62
66096;SHT31;53861;53.422;14.530;2022-10-03T13:43:59;17.80;66.79
66096;SHT31;53861;53.422;14.530;2022-10-03T13:46:31;17.51;69.55
66096;SHT31;53861;53.422;14.530;2022-10-03T13:49:08;17.67;67.99
66096;SHT31;53861;53.422;14.530;2022-10-03T13:51:39;17.53;69.57
66096;SHT31;53861;53.422;14.530;2022-10-03T13:54:10;17.47;69.44
66096;SHT31;53861;53.422;14.530;2022-10-03T13:56:42;17.36;69.01
66096;SHT31;53861;53.422;14.530;2022-10-03T13:59:18;17.14;68.82
66096;SHT31;53861;53.422;14.530;2022-10-03T14:01:50;16.95;70.22
66096;SHT31;53861;53.422;14.530;2022-10-03T14:04:35;16.67;70.09
66096;SHT31;53861;53.422;14.530;2022-10-03T14:07:06;16.77;72.87
66096;SHT31;53861;53.422;14.530;2022-10-03T14:09:37;16.79;71.08
66096;SHT31;53861;53.422;14.530;2022-10-03T14:12:09;16.78;71.95
66096;SHT31;53861;53.422;14.530;2022-10-03T14:14:47;16.72;72.30
66096;SHT31;53861;53.422;14.530;2022-10-03T14:17:16;16.67;72.21
66096;SHT31;53861;53.422;14.530;2022-10-03T14:19:51;16.69;72.85
66096;SHT31;53861;53.422;14.530;2022-10-03T14:22:27;16.94;71.87
66096;SHT31;53861;53.422;14.530;2022-10-03T14:25:02;16.84;71.84
66096;SHT31;53861;53.422;14.530;2022-10-03T14:27:41;16.88;72.61
66096;SHT31;53861;53.422;14.530;2022-10-03T14:30:11;16.81;71.50
66096;SHT31;53861;53.422;14.530;2022-10-03T14:32:43;16.84;74.49
66096;SHT31;53861;53.422;14.530;2022-10-03T14:35:17;16.64;74.71
66096;SHT31;53861;53.422;14.530;2022-10-03T14:37:48;16.72;71.14
66096;SHT31;53861;53.422;14.530;2022-10-03T14:40:19;16.44;72.05
66096;SHT31;53861;53.422;14.530;2022-10-03T14:43:05;16.41;72.68
66096;SHT31;53861;53.422;14.530;2022-10-03T14:45:41;16.40;72.04
66096;SHT31;53861;53.422;14.530;2022-10-03T14:48:11;16.20;70.10
66096;SHT31;53861;53.422;14.530;2022-10-03T14:50:41;16.13;71.67
66096;SHT31;53861;53.422;14.530;2022-10-03T14:53:12;15.97;68.97
66096;SHT31;53861;53.422;14.530;2022-10-03T14:55:42;15.93;70.34
66096;SHT31;53861;53.422;14.530;2022-10-03T14:58:12;16.04;70.79
66096;SHT31;53861;53.422;14.530;2022-10-03T15:00:43;16.09;70.33
66096;SHT31;53861;53.422;14.530;2022-10-03T15:03:12;16.18;69.63
66096;SHT31;53861;53.422;14.530;2022-10-03T15:05:52;16.03;70.12
66096;SHT31;53861;53.422;14.530;2022-10-03T15:08:20;15.95;72.20
66096;SHT31;53861;53.422;14.530;2022-10-03T15:10:47;15.86;69.72
66096;SHT31;53861;53.422;14.530;2022-10-03T15:13:16;15.79;71.12
66096;SHT31;53861;53.422;14.530;2022-10-03T15:15:44;15.81;70.80
66096;SHT31;53861;53.422;14.530;2022-10-03T15:18:12;15.72;71.79
66096;SHT31;53861;53.422;14.530;2022-10-03T15:20:41;15.79;69.15
66096;SHT31;53861;53.422;14.530;2022-10-03T15:23:17;15.75;71.08
66096;SHT31;53861;53.422;14.530;2022-10-03T15:25:45;15.76;71.18
66096;SHT31;53861;53.422;14.530;2022-10-03T15:28:18;15.67;70.89
66096;SHT31;53861;53.422;14.530;2022-10-03T15:30:46;15.65;71.93
66096;SHT31;53861;53.422;14.530;2022-10-03T15:33:15;15.63;71.14
66096;SHT31;53861;53.422;14.530;2022-10-03T15:35:44;15.61;70.20
66096;SHT31;53861;53.422;14.530;2022-10-03T15:38:12;15.46;70.59
66096;SHT31;53861;53.422;14.530;2022-10-03T15:40:45;15.42;71.35
66096;SHT31;53861;53.422;14.530;2022-10-03T15:43:25;15.35;72.24
66096;SHT31;53861;53.422;14.530;2022-10-03T15:45:52;15.34;71.48
66096;SHT31;53861;53.422;14.530;2022-10-03T15:48:21;15.34;71.27
66096;SHT31;53861;53.422;14.530;2022-10-03T15:50:51;15.31;71.41
66096;SHT31;53861;53.422;14.530;2022-10-03T15:53:19;15.18;71.91
66096;SHT31;53861;53.422;14.530;2022-10-03T15:55:49;15.07;73.16
66096;SHT31;53861;53.422;14.530;2022-10-03T15:58:19;14.98;73.76
66096;SHT31;53861;53.422;14.530;2022-10-03T16:00:48;14.83;73.62
66096;SHT31;53861;53.422;14.530;2022-10-03T16:03:21;14.74;73.74
66096;SHT31;53861;53.422;14.530;2022-10-03T16:05:52;14.66;72.89
66096;SHT31;53861;53.422;14.530;2022-10-03T16:08:21;14.69;73.23
66096;SHT31;53861;53.422;14.530;2022-10-03T16:10:56;14.69;74.92
66096;SHT31;53861;53.422;14.530;2022-10-03T16:13:26;14.66;73.56
66096;SHT31;53861;53.422;14.530;2022-10-03T16:16:04;14.71;74.66
66096;SHT31;53861;53.422;14.530;2022-10-03T16:18:37;14.69;74.19
66096;SHT31;53861;53.422;14.530;2022-10-03T16:21:08;14.71;75.29
66096;SHT31;53861;53.422;14.530;2022-10-03T16:23:37;14.66;75.36
66096;SHT31;53861;53.422;14.530;2022-10-03T16:26:13;14.66;76.77
66096;SHT31;53861;53.422;14.530;2022-10-03T16:28:46;14.57;76.34
66096;SHT31;53861;53.422;14.530;2022-10-03T16:31:17;14.67;76.23
66096;SHT31;53861;53.422;14.530;2022-10-03T16:33:46;14.60;75.49
66096;SHT31;53861;53.422;14.530;2022-10-03T16:36:16;14.51;76.06
66096;SHT31;53861;53.422;14.530;2022-10-03T16:38:50;14.56;76.60
66096;SHT31;53861;53.422;14.530;2022-10-03T16:41:20;14.49;75.95
66096;SHT31;53861;53.422;14.530;2022-10-03T16:43:53;14.51;75.06
66096;SHT31;53861;53.422;14.530;2022-10-03T16:46:21;14.53;76.13
66096;SHT31;53861;53.422;14.530;2022-10-03T16:48:49;14.43;76.35
66096;SHT31;53861;53.422;14.530;2022-10-03T16:51:36;14.43;76.57
66096;SHT31;53861;53.422;14.530;2022-10-03T16:54:04;14.41;76.33
66096;SHT31;53861;53.422;14.530;2022-10-03T16:56:42;14.33;77.49
66096;SHT31;53861;53.422;14.530;2022-10-03T16:59:13;14.22;78.49
66096;SHT31;53861;53.422;14.530;2022-10-03T17:01:43;14.26;77.61
66096;SHT31;53861;53.422;14.530;2022-10-03T17:04:12;14.30;77.36
66096;SHT31;53861;53.422;14.530;2022-10-03T17:06:42;14.29;78.31
66096;SHT31;53861;53.422;14.530;2022-10-03T17:09:14;14.19;77.91
66096;SHT31;53861;53.422;14.530;2022-10-03T17:11:46;14.02;78.19
66096;SHT31;53861;53.422;14.530;2022-10-03T17:14:19;13.99;79.48
66096;SHT31;53861;53.422;14.530;2022-10-03T17:16:49;13.90;79.25
66096;SHT31;53861;53.422;14.530;2022-10-03T17:19:24;13.90;79.44
66096;SHT31;53861;53.422;14.530;2022-10-03T17:21:56;13.83;80.52
66096;SHT31;53861;53.422;14.530;2022-10-03T17:24:36;13.82;80.51
66096;SHT31;53861;53.422;14.530;2022-10-03T17:27:08;13.78;80.12
66096;SHT31;53861;53.422;14.530;2022-10-03T17:32:16;13.75;81.12
66096;SHT31;53861;53.422;14.530;2022-10-03T17:34:49;13.65;82.04
66096;SHT31;53861;53.422;14.530;2022-10-03T17:37:27;13.61;80.88
66096;SHT31;53861;53.422;14.530;2022-10-03T17:39:58;13.59;81.16
66096;SHT31;53861;53.422;14.530;2022-10-03T17:42:37;13.51;81.94
66096;SHT31;53861;53.422;14.530;2022-10-03T17:45:09;13.54;81.58
66096;SHT31;53861;53.422;14.530;2022-10-03T17:47:46;13.57;82.18
66096;SHT31;53861;53.422;14.530;2022-10-03T17:50:16;13.61;81.52
66096;SHT31;53861;53.422;14.530;2022-10-03T17:52:55;13.58;82.05
66096;SHT31;53861;53.422;14.530;2022-10-03T17:55:25;13.48;81.06
66096;SHT31;53861;53.422;14.530;2022-10-03T17:57:57;13.45;82.75
66096;SHT31;53861;53.422;14.530;2022-10-03T18:00:26;13.38;82.71
66096;SHT31;53861;53.422;14.530;2022-10-03T18:03:00;13.30;83.56
66096;SHT31;53861;53.422;14.530;2022-10-03T18:05:32;13.18;82.30
66096;SHT31;53861;53.422;14.530;2022-10-03T18:08:00;13.10;82.81
66096;SHT31;53861;53.422;14.530;2022-10-03T18:10:30;13.20;82.46
66096;SHT31;53861;53.422;14.530;2022-10-03T18:13:00;13.23;82.70
66096;SHT31;53861;53.422;14.530;2022-10-03T18:15:35;13.21;83.20
66096;SHT31;53861;53.422;14.530;2022-10-03T18:18:31;13.26;83.88
66096;SHT31;53861;53.422;14.530;2022-10-03T18:21:04;13.33;82.06
66096;SHT31;53861;53.422;14.530;2022-10-03T18:23:36;13.36;82.89
66096;SHT31;53861;53.422;14.530;2022-10-03T18:26:10;13.37;82.41
66096;SHT31;53861;53.422;14.530;2022-10-03T18:28:39;13.38;82.16
66096;SHT31;53861;53.422;14.530;2022-10-03T18:31:07;13.44;81.93
66096;SHT31;53861;53.422;14.530;2022-10-03T18:33:43;13.53;82.27
66096;SHT31;53861;53.422;14.530;2022-10-03T18:36:18;13.45;81.59
66096;SHT31;53861;53.422;14.530;2022-10-03T18:38:50;13.47;80.40
66096;SHT31;53861;53.422;14.530;2022-10-03T18:41:20;13.47;81.83
66096;SHT31;53861;53.422;14.530;2022-10-03T18:43:50;13.31;81.26